To NAV CANADA Home Page Login to a new session Search on AWWS site Feedback and Comments Disclaimer Vers la page française équivalente Tips FAQ What's new on the site To the Forecasts and Observations / NOTAM section To "File a Flight Plan" website Publications and other links Update of the User's profile FIC Telephone Numbers My Weather Data Folder Route Weather Data Regional Weather Data Local Weather Data To the Forecasts and Observations / NOTAM section
Request Generated 04/30/2017 at 20:32:03 UTC . Weather information available at that time is displayed.

METAR/TAF

CLYDE RIVER/NU    (show WxCam)

SPECI CYCY 302025Z AUTO 33018KT 5SM -SN FEW024 BKN034 OVC042 M12/M14
A2988 RMK SLP122=
SPECI CYCY 302019Z AUTO 32019KT 6SM -SN OVC036 M12/M14 A2988 RMK
SLP122=
METAR CYCY 302000Z AUTO 32019KT 3SM -SN OVC034 M11/M14 A2988 RMK
SLP122=
SPECI CYCY 301941Z AUTO 32019G24KT 4SM -SN FEW006 BKN026 BKN033
OVC041 M11/M14 A2988 RMK SLP123=
SPECI CYCY 301919Z AUTO 32020KT 3SM -SN FEW006 BKN016 M11/M14 A2988
RMK SLP122=
SPECI CYCY 301902Z AUTO 32019G24KT 2 1/2SM -SN FEW018 BKN022 OVC030
M11/M14 A2987 RMK SLP120=
METAR CYCY 301900Z AUTO 32019G24KT 3SM -SN FEW018 BKN024 OVC030
M12/M14 A2987 RMK SLP119=
SPECI CYCY 301828Z AUTO 32020KT 5SM -SN BKN036 OVC046 M12/M14 A2987
RMK SLP118=
SPECI CYCY 301810Z AUTO 32019KT 6SM -SN FEW028 BKN036 BKN047 M12/M14
A2987 RMK SLP118=
METAR CYCY 301800Z AUTO 32020KT 5SM -SN BKN032 M12/M14 A2987 RMK
SLP119=

TAF CYCY 301838Z 3019/0107 32020KT 6SM -SN SCT020 OVC030 TEMPO
3019/0107 2SM -SN BKN012 OVC025
RMK FCST BASED ON AUTO OBS. NXT FCST BY 010100Z=
Your time UTC time
Weather data provided by Environment Canada and NAV CANADA